Time;durP1;ratioP1;P1;durP2;ratioP2;P2;SDS_P1;SDS_P2;PMS_P1;PMS_P2;Temp;Humidity;BMP_temperature;BMP_pressure;BME280_temperature;BME280_humidity;BME280_pressure;Samples;Min_cycle;Max_cycle;Signal;HPM_P1;HPM_P2
2023/12/07 00:01:04;;;;;;;12.05;11.45;;;;;;;;;;5072899;28;20021;-63
2023/12/07 00:03:30;;;;;;;12.05;11.45;;;;;;;;;;5073765;28;20480;-63
2023/12/07 00:05:55;;;;;;;11.68;11.18;;;;;;;;;;5072811;28;20025;-62
2023/12/07 00:08:20;;;;;;;12.43;11.82;;;;;;;;;;5078592;28;20032;-63
2023/12/07 00:10:46;;;;;;;12.02;11.43;;;;;;;;;;5068041;28;20944;-63
2023/12/07 00:13:11;;;;;;;12.20;11.60;;;;;;;;;;5067831;28;20029;-63
2023/12/07 00:15:36;;;;;;;12.52;11.93;;;;;;;;;;5071861;28;20409;-64
2023/12/07 00:18:02;;;;;;;12.52;11.93;;;;;;;;;;5066825;28;20036;-63
2023/12/07 00:20:29;;;;;;;11.95;11.35;;;;;;;;;;5072586;28;20439;-63
2023/12/07 00:22:55;;;;;;;12.35;11.75;;;;;;;;;;5066800;28;20028;-63
2023/12/07 00:25:21;;;;;;;12.40;11.80;;;;;;;;;;5071735;28;20104;-63
2023/12/07 00:27:46;;;;;;;12.30;11.70;;;;;;;;;;5071795;28;20024;-63
2023/12/07 00:30:11;;;;;;;11.85;11.32;;;;;;;;;;5070032;28;20123;-63
2023/12/07 00:32:37;;;;;;;12.30;11.70;;;;;;;;;;5070114;28;20384;-63
2023/12/07 00:35:03;;;;;;;11.70;11.20;;;;;;;;;;5076286;28;20548;-63
2023/12/07 00:37:28;;;;;;;11.95;11.35;;;;;;;;;;5071515;28;20032;-63
2023/12/07 00:39:53;;;;;;;11.55;11.05;;;;;;;;;;5068700;28;20047;-62
2023/12/07 00:42:19;;;;;;;12.32;11.73;;;;;;;;;;5069356;28;20016;-63
2023/12/07 00:44:44;;;;;;;12.07;11.48;;;;;;;;;;5071932;28;20090;-63
2023/12/07 00:47:09;;;;;;;12.30;11.70;;;;;;;;;;5080180;28;20394;-62
2023/12/07 00:49:38;;;;;;;12.40;11.80;;;;;;;;;;5071155;28;20423;-62
2023/12/07 00:52:03;;;;;;;12.30;11.70;;;;;;;;;;5072426;28;20020;-62
2023/12/07 00:54:28;;;;;;;13.88;13.07;;;;;;;;;;5068674;28;20024;-63
2023/12/07 00:56:54;;;;;;;12.23;11.63;;;;;;;;;;5067534;28;20067;-63
2023/12/07 00:59:19;;;;;;;12.50;11.90;;;;;;;;;;5062395;28;20025;-63
2023/12/07 01:01:44;;;;;;;13.15;12.45;;;;;;;;;;5080551;28;20028;-64
2023/12/07 01:04:11;;;;;;;12.43;11.82;;;;;;;;;;5076143;28;20017;-63
2023/12/07 01:06:37;;;;;;;12.50;11.90;;;;;;;;;;5079137;28;20661;-62
2023/12/07 01:09:03;;;;;;;12.13;11.52;;;;;;;;;;5080154;28;20064;-62
2023/12/07 01:11:29;;;;;;;12.95;12.25;;;;;;;;;;5071740;28;20097;-61
2023/12/07 01:13:54;;;;;;;12.57;11.98;;;;;;;;;;5071225;28;20483;-62
2023/12/07 01:16:19;;;;;;;13.13;12.43;;;;;;;;;;5073554;28;20045;-63
2023/12/07 01:18:45;;;;;;;12.00;11.40;;;;;;;;;;5077100;28;20058;-62
2023/12/07 01:21:10;;;;;;;12.40;11.80;;;;;;;;;;5083418;28;20020;-62
2023/12/07 01:23:35;;;;;;;12.15;11.55;;;;;;;;;;5071883;28;20024;-62
2023/12/07 01:26:02;;;;;;;12.35;11.75;;;;;;;;;;5084652;28;20108;-63
2023/12/07 01:28:27;;;;;;;12.18;11.57;;;;;;;;;;5070830;28;20464;-63
2023/12/07 01:30:53;;;;;;;11.82;11.30;;;;;;;;;;5079854;28;20024;-63
2023/12/07 01:33:18;;;;;;;11.93;11.32;;;;;;;;;;5073639;28;20029;-62
2023/12/07 01:35:43;;;;;;;12.40;11.80;;;;;;;;;;5075668;28;20431;-63
2023/12/07 01:38:09;;;;;;;12.55;11.95;;;;;;;;;;5071085;28;20763;-63
2023/12/07 01:40:34;;;;;;;12.82;12.13;;;;;;;;;;5074003;28;20032;-63
2023/12/07 01:43:00;;;;;;;12.10;11.50;;;;;;;;;;5068590;28;20021;-63
2023/12/07 01:45:25;;;;;;;12.35;11.75;;;;;;;;;;5077601;28;20021;-62
2023/12/07 01:47:52;;;;;;;12.63;12.02;;;;;;;;;;5078588;28;20028;-61
2023/12/07 01:50:23;;;;;;;12.40;11.80;;;;;;;;;;5077708;28;20037;-62
2023/12/07 01:52:49;;;;;;;12.63;12.02;;;;;;;;;;5069521;28;20132;-62
2023/12/07 01:55:15;;;;;;;12.30;11.70;;;;;;;;;;5076739;28;20024;-62
2023/12/07 01:57:41;;;;;;;12.60;12.00;;;;;;;;;;5076102;28;20033;-63
2023/12/07 02:00:07;;;;;;;12.40;11.80;;;;;;;;;;5070646;28;20016;-62
2023/12/07 02:02:32;;;;;;;12.25;11.65;;;;;;;;;;5072322;28;20124;-62
2023/12/07 02:04:58;;;;;;;12.15;11.55;;;;;;;;;;5073399;28;20028;-63
2023/12/07 02:07:23;;;;;;;12.40;11.80;;;;;;;;;;5072544;28;20052;-62
2023/12/07 02:09:49;;;;;;;12.10;11.50;;;;;;;;;;5075851;28;20063;-63
2023/12/07 02:12:14;;;;;;;11.88;11.30;;;;;;;;;;5071202;28;20078;-62
2023/12/07 02:14:39;;;;;;;12.40;11.80;;;;;;;;;;5071137;28;20111;-63
2023/12/07 02:17:11;;;;;;;12.60;12.00;;;;;;;;;;5075880;28;22481;-63
2023/12/07 02:19:45;;;;;;;12.80;12.20;;;;;;;;;;5068970;28;20013;-63
2023/12/07 02:22:14;;;;;;;12.75;12.15;;;;;;;;;;5070393;28;20038;-63
2023/12/07 02:24:42;;;;;;;12.63;12.02;;;;;;;;;;5071899;28;20065;-62
2023/12/07 02:27:07;;;;;;;12.57;11.98;;;;;;;;;;5071389;28;20020;-62
2023/12/07 02:29:32;;;;;;;13.63;12.88;;;;;;;;;;5070436;28;20065;-64
2023/12/07 02:31:58;;;;;;;13.30;12.60;;;;;;;;;;5083232;28;20020;-62
2023/12/07 02:34:23;;;;;;;12.30;11.70;;;;;;;;;;5065334;28;20029;-61
2023/12/07 02:36:49;;;;;;;13.02;12.38;;;;;;;;;;5073779;28;20051;-63
2023/12/07 02:39:14;;;;;;;12.18;11.57;;;;;;;;;;5071675;28;20111;-63
2023/12/07 02:41:40;;;;;;;12.40;11.80;;;;;;;;;;5071236;28;20012;-61
2023/12/07 02:44:07;;;;;;;13.20;12.50;;;;;;;;;;5074273;28;20031;-62
2023/12/07 02:46:33;;;;;;;12.48;11.88;;;;;;;;;;5083659;28;20073;-61
2023/12/07 02:48:58;;;;;;;12.75;12.15;;;;;;;;;;5077970;28;20703;-62
2023/12/07 02:51:24;;;;;;;13.10;12.40;;;;;;;;;;5076229;28;20133;-63
2023/12/07 02:53:49;;;;;;;12.35;11.75;;;;;;;;;;5075564;28;20427;-63
2023/12/07 02:56:14;;;;;;;12.43;11.82;;;;;;;;;;5067997;28;20024;-63
2023/12/07 02:58:40;;;;;;;12.57;11.98;;;;;;;;;;5073822;28;20012;-62
2023/12/07 03:01:05;;;;;;;12.70;12.10;;;;;;;;;;5080259;28;20111;-63
2023/12/07 03:03:30;;;;;;;12.35;11.75;;;;;;;;;;5071615;28;20472;-62
2023/12/07 03:05:56;;;;;;;12.60;12.00;;;;;;;;;;5074498;28;20420;-62
2023/12/07 03:08:21;;;;;;;12.30;11.70;;;;;;;;;;5072284;28;20107;-64
2023/12/07 03:10:46;;;;;;;12.48;11.88;;;;;;;;;;5074729;28;20029;-62
2023/12/07 03:13:12;;;;;;;12.40;11.80;;;;;;;;;;5067895;28;20048;-62
2023/12/07 03:15:37;;;;;;;13.45;12.75;;;;;;;;;;5072130;28;20085;-62
2023/12/07 03:18:02;;;;;;;12.95;12.27;;;;;;;;;;5071027;28;20036;-62
2023/12/07 03:20:28;;;;;;;12.73;12.13;;;;;;;;;;5073878;28;20032;-63
2023/12/07 03:22:53;;;;;;;13.48;12.77;;;;;;;;;;5073279;28;20028;-62
2023/12/07 03:25:19;;;;;;;13.30;12.60;;;;;;;;;;5069510;28;20035;-62
2023/12/07 03:27:44;;;;;;;12.52;11.93;;;;;;;;;;5072072;28;20080;-63
2023/12/07 03:30:10;;;;;;;12.32;11.73;;;;;;;;;;5073889;28;20020;-63
2023/12/07 03:32:35;;;;;;;12.15;11.55;;;;;;;;;;5067863;28;20031;-63
2023/12/07 03:35:00;;;;;;;12.38;11.77;;;;;;;;;;5068151;28;20075;-61
2023/12/07 03:37:26;;;;;;;12.35;11.75;;;;;;;;;;5076223;28;20024;-62
2023/12/07 03:39:51;;;;;;;12.30;11.70;;;;;;;;;;5071419;28;20020;-61
2023/12/07 03:42:17;;;;;;;13.38;12.68;;;;;;;;;;5067502;28;20392;-63
2023/12/07 03:44:42;;;;;;;12.30;11.70;;;;;;;;;;5064602;28;20103;-63
2023/12/07 03:47:07;;;;;;;13.20;12.50;;;;;;;;;;5073679;28;20028;-63
2023/12/07 03:49:33;;;;;;;12.75;12.07;;;;;;;;;;5075267;28;20017;-61
2023/12/07 03:51:58;;;;;;;12.98;12.27;;;;;;;;;;5081368;28;20074;-61
2023/12/07 03:54:23;;;;;;;12.63;12.02;;;;;;;;;;5077233;28;20383;-62
2023/12/07 03:56:50;;;;;;;12.70;12.10;;;;;;;;;;5074243;28;20027;-62
2023/12/07 03:59:15;;;;;;;12.50;11.90;;;;;;;;;;5072436;28;20028;-62
2023/12/07 04:01:40;;;;;;;12.75;12.07;;;;;;;;;;5072859;28;20115;-62
2023/12/07 04:04:06;;;;;;;12.57;11.98;;;;;;;;;;5073123;28;20029;-63
2023/12/07 04:06:31;;;;;;;13.20;12.50;;;;;;;;;;5072320;28;20021;-62
2023/12/07 04:08:56;;;;;;;12.60;12.00;;;;;;;;;;5071372;28;20103;-63
2023/12/07 04:11:22;;;;;;;12.75;12.07;;;;;;;;;;5063309;28;20035;-63
2023/12/07 04:13:47;;;;;;;12.98;12.27;;;;;;;;;;5072293;28;20019;-63
2023/12/07 04:16:13;;;;;;;13.40;12.70;;;;;;;;;;5067615;28;20057;-63
2023/12/07 04:18:38;;;;;;;12.80;12.20;;;;;;;;;;5073291;28;20127;-62
2023/12/07 04:21:05;;;;;;;13.38;12.68;;;;;;;;;;5075057;28;20491;-62
2023/12/07 04:23:30;;;;;;;13.00;12.30;;;;;;;;;;5075031;28;20055;-62
2023/12/07 04:25:56;;;;;;;12.90;12.20;;;;;;;;;;5072499;28;20052;-62
2023/12/07 04:28:21;;;;;;;12.05;11.45;;;;;;;;;;5075909;28;20055;-62
2023/12/07 04:30:46;;;;;;;13.57;12.82;;;;;;;;;;5068282;28;20119;-63
2023/12/07 04:33:12;;;;;;;12.50;11.90;;;;;;;;;;5071649;28;20048;-63
2023/12/07 04:35:37;;;;;;;12.48;11.88;;;;;;;;;;5071376;28;20095;-62
2023/12/07 04:38:02;;;;;;;13.15;12.45;;;;;;;;;;5076491;28;20045;-62
2023/12/07 04:40:28;;;;;;;12.77;12.18;;;;;;;;;;5071425;28;20562;-62
2023/12/07 04:42:53;;;;;;;13.95;13.20;;;;;;;;;;5074097;28;20500;-63
2023/12/07 04:45:19;;;;;;;13.57;12.88;;;;;;;;;;5067675;28;20478;-62
2023/12/07 04:47:45;;;;;;;12.65;12.05;;;;;;;;;;5083413;28;20134;-62
2023/12/07 04:50:10;;;;;;;12.80;12.18;;;;;;;;;;5070282;28;20032;-63
2023/12/07 04:52:36;;;;;;;12.55;11.95;;;;;;;;;;5076798;28;20017;-63
2023/12/07 04:55:01;;;;;;;11.88;11.30;;;;;;;;;;5070744;28;20484;-63
2023/12/07 04:57:26;;;;;;;12.88;12.18;;;;;;;;;;5079434;28;20032;-62
2023/12/07 04:59:52;;;;;;;12.52;11.93;;;;;;;;;;5067742;28;20028;-63
2023/12/07 05:02:17;;;;;;;12.73;12.05;;;;;;;;;;5072543;28;20024;-61
2023/12/07 05:04:43;;;;;;;12.32;11.73;;;;;;;;;;5073296;28;20437;-62
2023/12/07 05:07:08;;;;;;;12.88;12.18;;;;;;;;;;5076119;28;20062;-64
2023/12/07 05:09:34;;;;;;;13.40;12.70;;;;;;;;;;5071893;28;20021;-62
2023/12/07 05:11:59;;;;;;;12.70;12.10;;;;;;;;;;5071028;28;20099;-61
2023/12/07 05:14:25;;;;;;;13.05;12.35;;;;;;;;;;5064165;28;20032;-63
2023/12/07 05:16:55;;;;;;;13.23;12.52;;;;;;;;;;5065809;28;20032;-62
2023/12/07 05:19:21;;;;;;;14.23;13.40;;;;;;;;;;5063946;28;20575;-63
2023/12/07 05:21:47;;;;;;;13.02;12.32;;;;;;;;;;5066490;28;20124;-62
2023/12/07 05:24:12;;;;;;;12.40;11.80;;;;;;;;;;5069041;28;20472;-61
2023/12/07 05:26:37;;;;;;;12.65;12.02;;;;;;;;;;5058562;28;20040;-62
2023/12/07 05:29:03;;;;;;;13.35;12.65;;;;;;;;;;5065382;28;20047;-63
2023/12/07 05:31:28;;;;;;;13.73;12.98;;;;;;;;;;5057737;28;20040;-62
2023/12/07 05:33:53;;;;;;;14.00;13.20;;;;;;;;;;5071327;28;20024;-62
2023/12/07 05:36:19;;;;;;;13.60;12.82;;;;;;;;;;5064964;28;20055;-63
2023/12/07 05:38:44;;;;;;;13.43;12.73;;;;;;;;;;5064741;28;20032;-62
2023/12/07 05:41:09;;;;;;;13.90;13.10;;;;;;;;;;5061998;28;20096;-64
2023/12/07 05:43:35;;;;;;;13.40;12.70;;;;;;;;;;5059656;28;20107;-62
2023/12/07 05:46:00;;;;;;;13.05;12.38;;;;;;;;;;5059324;28;20016;-65
2023/12/07 05:48:25;;;;;;;13.95;13.15;;;;;;;;;;5058967;28;20028;-63
2023/12/07 05:50:51;;;;;;;13.18;12.48;;;;;;;;;;5063742;28;20028;-63
2023/12/07 05:53:16;;;;;;;14.27;13.48;;;;;;;;;;5068116;28;20024;-63
2023/12/07 05:55:41;;;;;;;13.32;12.63;;;;;;;;;;5067980;28;20090;-63
2023/12/07 05:58:07;;;;;;;13.30;12.60;;;;;;;;;;5070153;28;20025;-62
2023/12/07 06:00:32;;;;;;;13.82;13.02;;;;;;;;;;5069758;28;20024;-63
2023/12/07 06:02:57;;;;;;;14.70;13.80;;;;;;;;;;5065935;28;20074;-62
2023/12/07 06:05:22;;;;;;;13.60;12.82;;;;;;;;;;5061889;28;20032;-63
2023/12/07 06:07:48;;;;;;;13.27;12.57;;;;;;;;;;5065123;28;20283;-62
2023/12/07 06:10:13;;;;;;;13.38;12.68;;;;;;;;;;5067935;28;20027;-63
2023/12/07 06:12:39;;;;;;;12.48;11.88;;;;;;;;;;5064882;28;20020;-63
2023/12/07 06:15:06;;;;;;;13.10;12.40;;;;;;;;;;5063000;28;22149;-63
2023/12/07 06:17:33;;;;;;;13.45;12.73;;;;;;;;;;5067156;28;20062;-62
2023/12/07 06:19:59;;;;;;;12.55;11.95;;;;;;;;;;5066813;28;20078;-63
2023/12/07 06:22:24;;;;;;;13.05;12.35;;;;;;;;;;5069619;28;20025;-63
2023/12/07 06:24:50;;;;;;;13.40;12.70;;;;;;;;;;5065007;28;20016;-63
2023/12/07 06:27:15;;;;;;;13.68;12.90;;;;;;;;;;5074765;28;20055;-63
2023/12/07 06:29:40;;;;;;;13.82;13.02;;;;;;;;;;5069881;28;20021;-62
2023/12/07 06:32:06;;;;;;;13.20;12.50;;;;;;;;;;5064722;28;20460;-64
2023/12/07 06:34:31;;;;;;;13.35;12.65;;;;;;;;;;5066976;28;20484;-64
2023/12/07 06:36:56;;;;;;;13.07;12.38;;;;;;;;;;5062478;28;20045;-62
2023/12/07 06:39:22;;;;;;;13.02;12.32;;;;;;;;;;5065590;28;20120;-63
2023/12/07 06:41:47;;;;;;;12.40;11.80;;;;;;;;;;5070319;28;20016;-63
2023/12/07 06:44:12;;;;;;;13.05;12.35;;;;;;;;;;5068329;28;20111;-63
2023/12/07 06:46:39;;;;;;;14.52;13.65;;;;;;;;;;5063907;28;20489;-63
2023/12/07 06:49:04;;;;;;;13.45;12.75;;;;;;;;;;5068318;28;20016;-63
2023/12/07 06:51:30;;;;;;;13.13;12.43;;;;;;;;;;5067996;28;20396;-62
2023/12/07 06:53:55;;;;;;;13.20;12.50;;;;;;;;;;5064501;28;20388;-63
2023/12/07 06:56:20;;;;;;;13.15;12.45;;;;;;;;;;5066950;28;20113;-64
2023/12/07 06:58:46;;;;;;;13.10;12.40;;;;;;;;;;5062531;28;20379;-62
2023/12/07 07:01:12;;;;;;;14.07;13.27;;;;;;;;;;5065459;28;20039;-63
2023/12/07 07:03:38;;;;;;;14.68;13.80;;;;;;;;;;5057995;28;20048;-65
2023/12/07 07:06:03;;;;;;;13.13;12.43;;;;;;;;;;5065669;28;20603;-65
2023/12/07 07:08:28;;;;;;;13.75;12.95;;;;;;;;;;5057608;28;20021;-67
2023/12/07 07:10:54;;;;;;;13.10;12.40;;;;;;;;;;5059723;28;20107;-66
2023/12/07 07:13:20;;;;;;;12.27;11.68;;;;;;;;;;5066938;28;20069;-69
2023/12/07 07:15:45;;;;;;;12.95;12.32;;;;;;;;;;5062265;28;20075;-65
2023/12/07 07:18:11;;;;;;;13.23;12.52;;;;;;;;;;5063897;28;20060;-67
2023/12/07 07:20:36;;;;;;;13.30;12.60;;;;;;;;;;5060896;28;20056;-66
2023/12/07 07:23:02;;;;;;;13.73;12.93;;;;;;;;;;5058501;28;20016;-67
2023/12/07 07:25:27;;;;;;;14.52;13.68;;;;;;;;;;5063887;28;20024;-68
2023/12/07 07:27:54;;;;;;;13.30;12.60;;;;;;;;;;5064247;28;20032;-65
2023/12/07 07:30:19;;;;;;;13.43;12.70;;;;;;;;;;5064974;28;20478;-67
2023/12/07 07:32:45;;;;;;;16.08;15.00;;;;;;;;;;5061154;28;20021;-66
2023/12/07 07:35:11;;;;;;;12.77;12.10;;;;;;;;;;5060079;28;20032;-68
2023/12/07 07:37:37;;;;;;;12.88;12.18;;;;;;;;;;5063559;28;20029;-66
2023/12/07 07:40:06;;;;;;;13.90;13.10;;;;;;;;;;5063531;28;21203;-67
2023/12/07 07:42:32;;;;;;;13.27;12.57;;;;;;;;;;5060558;28;20103;-70
2023/12/07 07:44:57;;;;;;;12.55;11.95;;;;;;;;;;5062277;28;20099;-68
2023/12/07 07:47:22;;;;;;;13.18;12.48;;;;;;;;;;5061773;28;20439;-67
2023/12/07 07:49:48;;;;;;;13.13;12.43;;;;;;;;;;5063104;28;20024;-65
2023/12/07 07:52:13;;;;;;;13.43;12.73;;;;;;;;;;5064706;28;20017;-66
2023/12/07 07:54:38;;;;;;;13.63;12.82;;;;;;;;;;5057147;28;20032;-67
2023/12/07 07:57:04;;;;;;;13.57;12.82;;;;;;;;;;5059545;28;20021;-70
2023/12/07 07:59:30;;;;;;;13.43;12.70;;;;;;;;;;5065412;28;20024;-66
2023/12/07 08:01:56;;;;;;;15.13;14.20;;;;;;;;;;5056151;28;21326;-68
2023/12/07 08:04:21;;;;;;;12.95;12.25;;;;;;;;;;5063726;28;20029;-70
2023/12/07 08:06:46;;;;;;;13.40;12.70;;;;;;;;;;5059610;28;20048;-68
2023/12/07 08:09:12;;;;;;;14.40;13.60;;;;;;;;;;5062240;28;20105;-67
2023/12/07 08:11:37;;;;;;;14.15;13.35;;;;;;;;;;5057567;28;20539;-67
2023/12/07 08:14:02;;;;;;;13.00;12.30;;;;;;;;;;5061069;28;20070;-67
2023/12/07 08:16:28;;;;;;;13.32;12.63;;;;;;;;;;5063461;28;20052;-66
2023/12/07 08:18:53;;;;;;;13.23;12.52;;;;;;;;;;5066560;28;20387;-65
2023/12/07 08:21:21;;;;;;;13.32;12.63;;;;;;;;;;5077647;28;20081;-68
2023/12/07 08:23:47;;;;;;;14.27;13.48;;;;;;;;;;5060038;28;20027;-66
2023/12/07 08:26:14;;;;;;;13.45;12.75;;;;;;;;;;5059918;28;20029;-68
2023/12/07 08:28:43;;;;;;;14.10;13.30;;;;;;;;;;5058189;28;20487;-68
2023/12/07 08:31:09;;;;;;;12.52;11.93;;;;;;;;;;5063852;28;20150;-70
2023/12/07 08:33:34;;;;;;;12.77;12.10;;;;;;;;;;5062460;28;20503;-67
2023/12/07 08:36:00;;;;;;;14.32;13.52;;;;;;;;;;5066559;28;20037;-67
2023/12/07 08:38:25;;;;;;;12.45;11.85;;;;;;;;;;5067141;28;20029;-68
2023/12/07 08:40:51;;;;;;;12.63;12.02;;;;;;;;;;5064525;28;20511;-66
2023/12/07 08:43:16;;;;;;;13.00;12.30;;;;;;;;;;5067422;28;20020;-67
2023/12/07 08:45:42;;;;;;;12.93;12.23;;;;;;;;;;5062579;28;20036;-67
2023/12/07 08:48:07;;;;;;;12.45;11.85;;;;;;;;;;5060709;28;20016;-67
2023/12/07 08:50:32;;;;;;;14.00;13.20;;;;;;;;;;5066195;28;20021;-67
2023/12/07 08:52:58;;;;;;;13.35;12.65;;;;;;;;;;5064366;28;20502;-68
2023/12/07 08:55:23;;;;;;;13.23;12.52;;;;;;;;;;5062042;28;20056;-66
2023/12/07 08:57:48;;;;;;;13.68;12.88;;;;;;;;;;5064504;28;20032;-66
2023/12/07 09:00:14;;;;;;;13.52;12.82;;;;;;;;;;5064357;28;20040;-66
2023/12/07 09:02:39;;;;;;;13.85;13.05;;;;;;;;;;5060890;28;20890;-67
2023/12/07 09:05:05;;;;;;;12.68;12.07;;;;;;;;;;5062468;28;20039;-65
2023/12/07 09:07:30;;;;;;;12.75;12.13;;;;;;;;;;5060592;28;20028;-66
2023/12/07 09:09:55;;;;;;;12.55;11.95;;;;;;;;;;5061280;28;20450;-66
2023/12/07 09:12:20;;;;;;;13.15;12.45;;;;;;;;;;5064142;28;20475;-68
2023/12/07 09:14:46;;;;;;;13.40;12.70;;;;;;;;;;5062580;28;20102;-67
2023/12/07 09:17:11;;;;;;;12.73;12.05;;;;;;;;;;5059676;28;20033;-66
2023/12/07 09:19:37;;;;;;;12.50;11.90;;;;;;;;;;5060648;28;20475;-66
2023/12/07 09:22:02;;;;;;;12.77;12.10;;;;;;;;;;5062297;28;20060;-66
2023/12/07 09:24:27;;;;;;;13.93;13.13;;;;;;;;;;5067845;28;20028;-68
2023/12/07 09:26:53;;;;;;;13.82;13.02;;;;;;;;;;5070414;28;20028;-68
2023/12/07 09:29:19;;;;;;;12.73;12.02;;;;;;;;;;5067447;28;20098;-68
2023/12/07 09:31:45;;;;;;;13.30;12.60;;;;;;;;;;5070069;28;20047;-67
2023/12/07 09:34:11;;;;;;;12.15;11.55;;;;;;;;;;5066905;28;20025;-66
2023/12/07 09:36:36;;;;;;;12.98;12.27;;;;;;;;;;5068626;28;20041;-68
2023/12/07 09:39:02;;;;;;;13.10;12.40;;;;;;;;;;5064829;28;20040;-68
2023/12/07 09:41:28;;;;;;;13.00;12.30;;;;;;;;;;5069137;28;21666;-69
2023/12/07 09:43:54;;;;;;;13.05;12.35;;;;;;;;;;5067826;28;20031;-66
2023/12/07 09:46:19;;;;;;;13.43;12.73;;;;;;;;;;5067567;28;20032;-69
2023/12/07 09:48:46;;;;;;;13.27;12.57;;;;;;;;;;5070049;28;20039;-68
2023/12/07 09:51:13;;;;;;;13.07;12.38;;;;;;;;;;5065216;28;20036;-66
2023/12/07 09:53:39;;;;;;;13.77;13.00;;;;;;;;;;5066473;28;20033;-65
2023/12/07 09:56:05;;;;;;;13.18;12.48;;;;;;;;;;5065198;28;20107;-68
2023/12/07 09:58:30;;;;;;;13.70;12.93;;;;;;;;;;5062095;28;20107;-67
2023/12/07 10:00:56;;;;;;;12.88;12.18;;;;;;;;;;5068544;28;20021;-68
2023/12/07 10:03:25;;;;;;;12.50;11.90;;;;;;;;;;5063666;28;20115;-66
2023/12/07 10:05:55;;;;;;;12.88;12.18;;;;;;;;;;5067530;28;20024;-66
2023/12/07 10:08:27;;;;;;;12.45;11.85;;;;;;;;;;5061918;28;20036;-67
2023/12/07 10:11:05;;;;;;;12.40;11.80;;;;;;;;;;5065036;28;20104;-68
2023/12/07 10:13:31;;;;;;;12.55;11.95;;;;;;;;;;5061719;28;20091;-68
2023/12/07 10:16:07;;;;;;;13.57;12.88;;;;;;;;;;5063359;28;20048;-68
2023/12/07 10:18:32;;;;;;;14.13;13.32;;;;;;;;;;5068710;28;20028;-65
2023/12/07 10:20:59;;;;;;;13.00;12.30;;;;;;;;;;5063844;28;20048;-69
2023/12/07 10:23:26;;;;;;;12.70;12.10;;;;;;;;;;5065088;28;20563;-69
2023/12/07 10:25:51;;;;;;;12.50;11.90;;;;;;;;;;5065801;28;20099;-66
2023/12/07 10:28:18;;;;;;;12.57;11.98;;;;;;;;;;5062775;28;20116;-68
2023/12/07 10:30:45;;;;;;;12.55;11.95;;;;;;;;;;5065880;28;20028;-69
2023/12/07 10:33:12;;;;;;;13.25;12.55;;;;;;;;;;5065809;28;20027;-69
2023/12/07 10:35:39;;;;;;;12.70;12.10;;;;;;;;;;5060862;28;20024;-68
2023/12/07 10:38:04;;;;;;;12.50;11.90;;;;;;;;;;5063899;28;20476;-68
2023/12/07 10:40:30;;;;;;;13.70;13.00;;;;;;;;;;5060127;28;20023;-68
2023/12/07 10:42:57;;;;;;;13.07;12.38;;;;;;;;;;5059151;28;20028;-67
2023/12/07 10:45:25;;;;;;;13.43;12.73;;;;;;;;;;5060337;28;20075;-66
2023/12/07 10:47:51;;;;;;;13.00;12.30;;;;;;;;;;5064291;28;20099;-69
2023/12/07 10:50:18;;;;;;;13.07;12.38;;;;;;;;;;5065847;28;20105;-67
2023/12/07 10:52:45;;;;;;;13.20;12.50;;;;;;;;;;5063024;28;20025;-68
2023/12/07 10:55:15;;;;;;;12.80;12.15;;;;;;;;;;5065009;28;20033;-68
2023/12/07 10:57:41;;;;;;;12.50;11.90;;;;;;;;;;5058487;28;20127;-67
2023/12/07 11:00:08;;;;;;;13.55;12.85;;;;;;;;;;5060011;28;20091;-68
2023/12/07 11:02:35;;;;;;;14.13;13.32;;;;;;;;;;5061567;28;20024;-66
2023/12/07 11:05:00;;;;;;;14.35;13.55;;;;;;;;;;5060889;28;20476;-67
2023/12/07 11:07:33;;;;;;;13.10;12.40;;;;;;;;;;5064924;28;20035;-71
2023/12/07 11:10:05;;;;;;;14.80;13.90;;;;;;;;;;5063924;28;20033;-71
2023/12/07 11:12:36;;;;;;;13.95;13.15;;;;;;;;;;5065352;28;20016;-70
2023/12/07 11:15:02;;;;;;;12.85;12.15;;;;;;;;;;5064838;28;20094;-69
2023/12/07 11:17:27;;;;;;;15.25;14.35;;;;;;;;;;5078840;28;20025;-70
2023/12/07 11:19:52;;;;;;;13.35;12.65;;;;;;;;;;5063089;28;20020;-69
2023/12/07 11:22:22;;;;;;;13.00;12.30;;;;;;;;;;5071347;28;20060;-69
2023/12/07 11:24:55;;;;;;;13.90;13.10;;;;;;;;;;5067495;28;20017;-70
2023/12/07 11:27:21;;;;;;;13.30;12.60;;;;;;;;;;5072589;28;20024;-69
2023/12/07 11:29:48;;;;;;;12.95;12.25;;;;;;;;;;5066302;28;20082;-69
2023/12/07 11:32:13;;;;;;;13.55;12.82;;;;;;;;;;5073289;28;20027;-68
2023/12/07 11:34:39;;;;;;;13.05;12.35;;;;;;;;;;5073135;28;20024;-68
2023/12/07 11:37:06;;;;;;;13.90;13.10;;;;;;;;;;5073562;28;20037;-68
2023/12/07 11:39:36;;;;;;;17.63;16.42;;;;;;;;;;5067746;28;20020;-64
2023/12/07 11:42:17;;;;;;;13.57;12.88;;;;;;;;;;5059309;28;20494;-69
2023/12/07 11:44:44;;;;;;;12.50;11.90;;;;;;;;;;5062321;28;20077;-68
2023/12/07 11:47:10;;;;;;;13.45;12.70;;;;;;;;;;5073399;28;20025;-67
2023/12/07 11:49:36;;;;;;;13.82;13.02;;;;;;;;;;5067431;28;20451;-68
2023/12/07 11:52:11;;;;;;;13.40;12.70;;;;;;;;;;5063644;28;20158;-68
2023/12/07 11:54:36;;;;;;;13.43;12.73;;;;;;;;;;5063304;28;20020;-69
2023/12/07 11:57:02;;;;;;;13.90;13.15;;;;;;;;;;5059319;28;20032;-69
2023/12/07 11:59:28;;;;;;;13.65;12.90;;;;;;;;;;5061597;28;20077;-66
2023/12/07 12:01:53;;;;;;;12.35;11.75;;;;;;;;;;5058741;28;20044;-66
2023/12/07 12:04:19;;;;;;;13.38;12.68;;;;;;;;;;5064715;28;20491;-68
2023/12/07 12:06:45;;;;;;;13.48;12.75;;;;;;;;;;5062038;28;20099;-68
2023/12/07 12:09:19;;;;;;;13.18;12.48;;;;;;;;;;5065503;28;20050;-67
2023/12/07 12:11:47;;;;;;;13.02;12.32;;;;;;;;;;5072610;28;20444;-67
2023/12/07 12:14:16;;;;;;;12.77;12.10;;;;;;;;;;5068000;28;20044;-67
2023/12/07 12:16:42;;;;;;;12.48;11.88;;;;;;;;;;5064168;28;20491;-65
2023/12/07 12:19:08;;;;;;;12.82;12.13;;;;;;;;;;5062859;28;20028;-66
2023/12/07 12:21:34;;;;;;;12.95;12.27;;;;;;;;;;5063890;28;20386;-67
2023/12/07 12:24:00;;;;;;;13.57;12.88;;;;;;;;;;5061866;28;20027;-68
2023/12/07 12:26:25;;;;;;;14.13;13.32;;;;;;;;;;5063058;28;20032;-66
2023/12/07 12:28:52;;;;;;;14.88;13.98;;;;;;;;;;5067469;28;20025;-68
2023/12/07 12:31:18;;;;;;;13.73;12.95;;;;;;;;;;5062163;28;20039;-67
2023/12/07 12:33:43;;;;;;;13.07;12.38;;;;;;;;;;5057831;28;20583;-70
2023/12/07 12:36:10;;;;;;;13.15;12.45;;;;;;;;;;5062001;28;20337;-71
2023/12/07 12:38:36;;;;;;;13.25;12.55;;;;;;;;;;5060053;28;20033;-70
2023/12/07 12:41:03;;;;;;;13.27;12.57;;;;;;;;;;5058325;28;20480;-68
2023/12/07 12:43:29;;;;;;;12.57;11.98;;;;;;;;;;5064169;28;20024;-66
2023/12/07 12:45:54;;;;;;;14.13;13.32;;;;;;;;;;5056330;28;20020;-69
2023/12/07 12:48:19;;;;;;;12.70;12.10;;;;;;;;;;5064085;28;20079;-67
2023/12/07 12:50:45;;;;;;;12.95;12.25;;;;;;;;;;5064706;28;20028;-66
2023/12/07 12:53:11;;;;;;;12.77;12.18;;;;;;;;;;5067227;28;20032;-63
2023/12/07 12:55:40;;;;;;;13.77;12.98;;;;;;;;;;5066015;28;20020;-68
2023/12/07 12:58:07;;;;;;;12.63;12.02;;;;;;;;;;5067248;28;20427;-66
2023/12/07 13:00:35;;;;;;;14.23;13.43;;;;;;;;;;5065393;28;20954;-65
2023/12/07 13:03:02;;;;;;;13.23;12.52;;;;;;;;;;5063783;28;20029;-64
2023/12/07 13:05:27;;;;;;;13.30;12.60;;;;;;;;;;5065811;28;24525;-68
2023/12/07 13:07:53;;;;;;;13.82;13.02;;;;;;;;;;5071297;28;20439;-65
2023/12/07 13:10:18;;;;;;;13.70;12.93;;;;;;;;;;5063357;28;20070;-66
2023/12/07 13:12:45;;;;;;;13.48;12.77;;;;;;;;;;5065397;28;20021;-66
2023/12/07 13:15:10;;;;;;;12.52;11.90;;;;;;;;;;5071273;28;20139;-66
2023/12/07 13:17:36;;;;;;;12.80;12.10;;;;;;;;;;5060344;28;20032;-68
2023/12/07 13:20:01;;;;;;;13.43;12.73;;;;;;;;;;5073426;28;20761;-68
2023/12/07 13:22:26;;;;;;;12.73;12.07;;;;;;;;;;5070899;28;20028;-65
2023/12/07 13:24:52;;;;;;;12.60;12.00;;;;;;;;;;5075223;28;20031;-67
2023/12/07 13:27:17;;;;;;;12.57;11.98;;;;;;;;;;5069615;28;20017;-69
2023/12/07 13:29:43;;;;;;;13.45;12.75;;;;;;;;;;5072091;28;20039;-65
2023/12/07 13:32:09;;;;;;;13.90;13.10;;;;;;;;;;5061775;28;20364;-69
2023/12/07 13:34:35;;;;;;;13.55;12.85;;;;;;;;;;5078677;28;20032;-68
2023/12/07 13:37:00;;;;;;;14.13;13.32;;;;;;;;;;5067287;28;20035;-65
2023/12/07 13:39:27;;;;;;;13.27;12.57;;;;;;;;;;5060863;28;20024;-66
2023/12/07 13:41:52;;;;;;;13.70;12.93;;;;;;;;;;5064019;28;20091;-67
2023/12/07 13:44:18;;;;;;;13.07;12.38;;;;;;;;;;5067091;28;20337;-67
2023/12/07 13:46:44;;;;;;;13.55;12.82;;;;;;;;;;5063813;28;20025;-65
2023/12/07 13:49:11;;;;;;;14.13;13.32;;;;;;;;;;5065282;28;20060;-67
2023/12/07 13:51:36;;;;;;;14.50;13.68;;;;;;;;;;5065584;28;20440;-67
2023/12/07 13:54:01;;;;;;;13.10;12.40;;;;;;;;;;5067708;28;20149;-67
2023/12/07 13:56:27;;;;;;;13.95;13.15;;;;;;;;;;5067411;28;20081;-68
2023/12/07 13:58:53;;;;;;;13.80;13.05;;;;;;;;;;5063225;28;20115;-69
2023/12/07 14:01:18;;;;;;;13.27;12.57;;;;;;;;;;5065916;28;20027;-67
2023/12/07 14:03:44;;;;;;;16.13;15.05;;;;;;;;;;5064646;28;20105;-66
2023/12/07 14:06:09;;;;;;;13.82;13.02;;;;;;;;;;5062479;28;20029;-68
2023/12/07 14:08:34;;;;;;;13.23;12.52;;;;;;;;;;5064550;28;20089;-66